createdAt,value
2023-04-22T00:04:35.057Z,12.90
2023-04-22T00:09:41.200Z,14.00
2023-04-22T00:14:46.536Z,13.80
2023-04-22T00:19:52.090Z,13.50
2023-04-22T00:24:57.799Z,12.30
2023-04-22T00:30:03.870Z,11.10
2023-04-22T00:35:10.062Z,11.10
2023-04-22T00:40:15.924Z,11.50
2023-04-22T00:45:22.098Z,11.50
2023-04-22T00:50:28.054Z,10.90
2023-04-22T00:55:34.593Z,12.40
2023-04-22T01:00:40.511Z,9.40
2023-04-22T01:05:48.562Z,10.20
2023-04-22T01:10:54.540Z,10.30
2023-04-22T01:16:02.753Z,10.30
2023-04-22T01:21:08.431Z,9.80
2023-04-22T01:26:14.017Z,10.70
2023-04-22T01:31:20.198Z,10.40
2023-04-22T01:36:27.197Z,12.10
2023-04-22T01:41:33.227Z,12.60
2023-04-22T01:46:39.366Z,14.20
2023-04-22T01:51:45.556Z,14.20
2023-04-22T01:56:55.863Z,13.10
2023-04-22T02:02:01.644Z,12.50
2023-04-22T02:07:07.365Z,12.10
2023-04-22T02:12:14.171Z,12.60
2023-04-22T02:17:19.629Z,12.40
2023-04-22T02:22:27.634Z,13.00
2023-04-22T02:27:33.392Z,11.60
2023-04-22T02:32:40.301Z,10.50
2023-04-22T02:37:46.061Z,10.80
2023-04-22T02:42:51.732Z,11.10
2023-04-22T02:47:57.317Z,12.00
2023-04-22T02:53:02.939Z,11.90
2023-04-22T02:58:09.297Z,10.00
2023-04-22T03:03:15.062Z,11.10
2023-04-22T03:08:20.859Z,11.40
2023-04-22T03:13:27.176Z,11.90
2023-04-22T03:18:32.939Z,12.10
2023-04-22T03:23:38.662Z,10.60
2023-04-22T03:28:44.615Z,10.90
2023-04-22T03:33:50.268Z,11.20
2023-04-22T03:39:04.276Z,12.00
2023-04-22T03:44:11.084Z,22.50
2023-04-22T03:49:17.122Z,39.70
2023-04-22T03:54:23.303Z,25.90
2023-04-22T03:59:30.775Z,118.40
2023-04-22T04:04:37.076Z,67.50
2023-04-22T04:09:43.354Z,37.40
2023-04-22T04:14:49.880Z,23.40
2023-04-22T04:19:56.962Z,17.40
2023-04-22T04:25:02.643Z,15.40
2023-04-22T04:30:14.444Z,13.40
2023-04-22T04:35:29.305Z,13.40
2023-04-22T04:40:36.167Z,12.10
2023-04-22T04:45:54.916Z,10.40
2023-04-22T04:51:08.111Z,10.10
2023-04-22T04:56:17.484Z,9.00
2023-04-22T05:01:24.626Z,7.90
2023-04-22T05:06:31.542Z,7.00
2023-04-22T05:11:41.468Z,7.20
2023-04-22T05:16:52.416Z,6.80
2023-04-22T05:21:58.752Z,6.30
2023-04-22T05:27:04.375Z,6.90
2023-04-22T05:32:11.661Z,6.30
2023-04-22T05:37:18.523Z,6.30
2023-04-22T05:42:24.265Z,5.20
2023-04-22T05:47:30.133Z,5.60
2023-04-22T05:52:36.273Z,5.40
2023-04-22T05:57:51.334Z,5.60
2023-04-22T06:03:05.985Z,5.00
2023-04-22T06:08:12.090Z,5.10
2023-04-22T06:13:17.618Z,4.90
2023-04-22T06:18:24.849Z,4.30
2023-04-22T06:23:31.755Z,3.60
2023-04-22T06:28:37.406Z,4.10
2023-04-22T06:33:50.442Z,3.90
2023-04-22T06:38:56.589Z,4.00
2023-04-22T06:44:13.428Z,3.70
2023-04-22T06:49:40.229Z,3.60
2023-04-22T06:55:09.894Z,3.10
2023-04-22T07:00:16.560Z,3.20
2023-04-22T07:10:27.350Z,3.40
2023-04-22T07:15:53.513Z,3.60
2023-04-22T07:20:59.502Z,3.70
2023-04-22T07:26:05.404Z,3.40
2023-04-22T07:31:10.833Z,3.50
2023-04-22T07:36:16.358Z,3.20
2023-04-22T07:41:21.718Z,3.40
2023-04-22T07:46:28.128Z,3.30
2023-04-22T07:51:33.711Z,3.20
2023-04-22T07:56:39.270Z,2.50
2023-04-22T08:01:47.098Z,2.30
2023-04-22T08:06:52.879Z,2.40
2023-04-22T08:11:58.436Z,2.10
2023-04-22T08:17:04.236Z,2.20
2023-04-22T08:22:09.704Z,2.20
2023-04-22T08:27:15.270Z,2.30
2023-04-22T08:32:22.642Z,2.10
2023-04-22T08:37:29.666Z,1.30
2023-04-22T08:47:41.401Z,1.50
2023-04-22T08:52:47.771Z,1.80
2023-04-22T08:57:55.666Z,2.20
2023-04-22T09:03:03.417Z,2.10
2023-04-22T09:08:10.876Z,1.30
2023-04-22T09:13:17.924Z,1.40
2023-04-22T09:18:23.961Z,1.60
2023-04-22T09:23:29.438Z,1.40
2023-04-22T09:28:38.116Z,1.60
2023-04-22T09:33:50.094Z,1.80
2023-04-22T09:38:58.637Z,1.40
2023-04-22T09:44:09.213Z,1.60
2023-04-22T09:49:17.725Z,1.50
2023-04-22T09:54:25.700Z,1.60
2023-04-22T09:59:32.081Z,1.30
2023-04-22T10:04:38.758Z,1.50
2023-04-22T10:09:44.786Z,1.40
2023-04-22T10:14:50.209Z,1.20
2023-04-22T10:19:56.559Z,1.30
2023-04-22T10:25:02.345Z,1.50
2023-04-22T10:30:11.184Z,1.30
2023-04-22T10:35:17.039Z,1.10
2023-04-22T10:40:23.823Z,1.20
2023-04-22T10:45:32.424Z,1.30
2023-04-22T10:50:39.921Z,1.30
2023-04-22T10:55:53.593Z,1.40
2023-04-22T11:01:03.176Z,1.30
2023-04-22T11:06:18.291Z,1.40
2023-04-22T11:11:23.944Z,1.30
2023-04-22T11:16:29.823Z,1.30
2023-04-22T11:21:35.546Z,1.40
2023-04-22T11:26:41.752Z,1.40
2023-04-22T11:31:50.822Z,1.40
2023-04-22T11:36:58.056Z,1.50
2023-04-22T11:42:05.220Z,1.60
2023-04-22T11:47:11.291Z,1.60
2023-04-22T11:52:16.672Z,1.70
2023-04-22T11:57:22.431Z,1.50
2023-04-22T12:02:28.141Z,1.60
2023-04-22T12:07:34.696Z,1.40
2023-04-22T12:12:41.950Z,1.60
2023-04-22T12:17:50.538Z,1.60
2023-04-22T12:22:57.620Z,1.70
2023-04-22T12:28:03.950Z,1.70
2023-04-22T12:33:10.313Z,1.80
2023-04-22T12:38:16.137Z,2.30
2023-04-22T12:43:21.945Z,3.80
2023-04-22T12:48:27.644Z,1.60
2023-04-22T12:53:33.215Z,1.40
2023-04-22T12:58:38.932Z,1.80
2023-04-22T13:03:44.515Z,1.20
2023-04-22T13:08:50.138Z,1.70
2023-04-22T13:13:55.630Z,1.90
2023-04-22T13:19:01.556Z,2.50
2023-04-22T13:24:07.755Z,1.70
2023-04-22T13:29:14.189Z,2.10
2023-04-22T13:34:19.892Z,1.80
2023-04-22T13:39:26.755Z,1.60
2023-04-22T13:44:32.220Z,1.60
2023-04-22T13:49:37.848Z,1.80
2023-04-22T13:54:43.491Z,1.90
2023-04-22T13:59:50.751Z,1.80
2023-04-22T14:04:58.832Z,2.10
2023-04-22T14:10:06.059Z,2.30
2023-04-22T14:15:12.148Z,3.40
2023-04-22T14:20:17.761Z,3.90
2023-04-22T14:25:23.847Z,2.40
2023-04-22T14:30:29.508Z,2.40
2023-04-22T14:35:35.379Z,2.40
2023-04-22T14:40:41.234Z,2.50
2023-04-22T14:45:47.649Z,2.30
2023-04-22T14:50:53.614Z,3.20
2023-04-22T14:55:59.048Z,3.50
2023-04-22T15:01:05.785Z,5.90
2023-04-22T15:06:13.168Z,4.00
2023-04-22T15:11:18.944Z,5.70
2023-04-22T15:16:24.971Z,3.10
2023-04-22T15:21:30.430Z,2.10
2023-04-22T15:26:36.047Z,2.10
2023-04-22T15:31:41.817Z,2.30
2023-04-22T15:36:47.461Z,1.80
2023-04-22T15:41:53.051Z,2.20
2023-04-22T15:46:59.627Z,5.80
2023-04-22T15:52:05.916Z,3.00
2023-04-22T15:57:11.620Z,3.00
2023-04-22T16:02:17.615Z,2.80
2023-04-22T16:07:23.870Z,2.60
2023-04-22T16:12:29.857Z,6.10
2023-04-22T16:17:36.969Z,6.50
2023-04-22T16:22:42.427Z,4.20
2023-04-22T16:27:47.954Z,3.30
2023-04-22T16:32:53.470Z,2.40
2023-04-22T16:37:59.056Z,3.00
2023-04-22T16:43:05.411Z,3.10
2023-04-22T16:48:11.122Z,3.80
2023-04-22T16:53:16.504Z,3.60
2023-04-22T16:58:22.506Z,2.90
2023-04-22T17:03:28.375Z,3.00
2023-04-22T17:08:36.053Z,2.80
2023-04-22T17:13:41.873Z,3.30
2023-04-22T17:18:47.541Z,3.10
2023-04-22T17:23:53.107Z,4.30
2023-04-22T17:28:59.095Z,4.50
2023-04-22T17:34:04.565Z,4.30
2023-04-22T17:39:10.475Z,4.10
2023-04-22T17:44:15.946Z,5.00
2023-04-22T17:49:21.810Z,6.40
2023-04-22T17:54:27.207Z,5.50
2023-04-22T17:59:32.543Z,6.00
2023-04-22T18:04:37.936Z,6.90
2023-04-22T18:09:43.751Z,7.30
2023-04-22T18:14:49.293Z,8.30
2023-04-22T18:20:00.082Z,8.00
2023-04-22T18:25:17.733Z,8.50
2023-04-22T18:30:24.310Z,10.00
2023-04-22T18:35:30.833Z,10.40
2023-04-22T18:40:36.351Z,10.60
2023-04-22T18:45:42.485Z,12.20
2023-04-22T18:50:48.292Z,34.00
2023-04-22T18:55:53.808Z,19.80
2023-04-22T19:00:59.666Z,21.00
2023-04-22T19:06:05.823Z,16.40
2023-04-22T19:11:12.193Z,14.50
2023-04-22T19:16:17.647Z,15.60
2023-04-22T19:21:24.324Z,13.40
2023-04-22T19:26:29.864Z,16.00
2023-04-22T19:31:37.846Z,17.00
2023-04-22T19:36:43.532Z,16.50
2023-04-22T19:41:48.973Z,16.00
2023-04-22T19:46:55.214Z,15.70
2023-04-22T19:52:03.613Z,16.20
2023-04-22T19:57:10.259Z,15.50
2023-04-22T20:02:16.455Z,13.00
2023-04-22T20:07:22.740Z,10.60
2023-04-22T20:12:29.569Z,10.90
2023-04-22T20:17:39.166Z,11.20
2023-04-22T20:22:45.981Z,11.60
2023-04-22T20:27:52.769Z,11.90
2023-04-22T20:32:58.573Z,11.50
2023-04-22T20:38:05.243Z,11.70
2023-04-22T20:43:11.219Z,12.30
2023-04-22T20:48:16.592Z,12.50
2023-04-22T20:53:22.771Z,13.00
2023-04-22T20:58:28.344Z,13.60
2023-04-22T21:03:35.520Z,13.80
2023-04-22T21:08:41.568Z,15.60
2023-04-22T21:13:51.816Z,16.30
2023-04-22T21:19:03.261Z,16.80
2023-04-22T21:24:11.439Z,16.80
2023-04-22T21:29:17.760Z,15.60
2023-04-22T21:34:23.578Z,16.90
2023-04-22T21:39:29.102Z,17.60
2023-04-22T21:44:35.519Z,17.00
2023-04-22T21:49:40.975Z,18.20
2023-04-22T21:54:46.513Z,20.30
2023-04-22T21:59:51.912Z,21.40
2023-04-22T22:04:57.477Z,22.60
2023-04-22T22:10:03.531Z,22.20
2023-04-22T22:15:11.429Z,21.30
2023-04-22T22:20:20.333Z,21.60
2023-04-22T22:25:26.949Z,19.80
2023-04-22T22:30:32.520Z,19.40
2023-04-22T22:35:37.946Z,18.80
2023-04-22T22:40:43.515Z,17.90
2023-04-22T22:45:49.001Z,17.00
2023-04-22T22:50:54.668Z,17.50
2023-04-22T22:56:00.164Z,16.60
2023-04-22T23:01:06.188Z,17.80
2023-04-22T23:06:11.925Z,18.30
2023-04-22T23:11:17.700Z,19.30
2023-04-22T23:16:23.770Z,19.80
2023-04-22T23:21:31.833Z,19.20
2023-04-22T23:26:38.319Z,17.70
2023-04-22T23:31:45.093Z,17.10
2023-04-22T23:36:52.745Z,16.70
2023-04-22T23:41:58.136Z,17.90
2023-04-22T23:47:04.300Z,16.70
2023-04-22T23:52:11.043Z,17.00
2023-04-22T23:57:17.609Z,15.90
